createdAt,value
2023-10-06T00:01:04.637Z,82.01
2023-10-06T00:03:31.511Z,82.01
2023-10-06T00:05:58.331Z,83.67
2023-10-06T00:08:34.075Z,83.02
2023-10-06T00:11:21.147Z,82.84
2023-10-06T00:14:01.836Z,82.09
2023-10-06T00:16:40.368Z,81.44
2023-10-06T00:19:28.632Z,82.03
2023-10-06T00:22:05.721Z,81.74
2023-10-06T00:24:32.749Z,82.95
2023-10-06T00:27:00.594Z,82.84
2023-10-06T00:29:30.217Z,82.61
2023-10-06T00:32:17.313Z,80.83
2023-10-06T00:34:44.194Z,81.52
2023-10-06T00:37:13.019Z,81.72
2023-10-06T00:39:39.749Z,81.84
2023-10-06T00:42:07.895Z,82.39
2023-10-06T00:44:34.597Z,81.39
2023-10-06T00:47:07.270Z,80.60
2023-10-06T00:49:34.629Z,80.20
2023-10-06T00:52:02.311Z,78.76
2023-10-06T00:54:29.161Z,79.13
2023-10-06T00:56:59.315Z,78.84
2023-10-06T00:59:26.225Z,78.89
2023-10-06T01:01:54.083Z,78.53
2023-10-06T01:04:26.264Z,78.39
2023-10-06T01:06:55.837Z,77.84
2023-10-06T01:09:31.550Z,77.12
2023-10-06T01:11:58.586Z,77.24
2023-10-06T01:14:28.039Z,77.66
2023-10-06T01:17:11.073Z,76.84
2023-10-06T01:19:38.000Z,76.80
2023-10-06T01:22:23.340Z,76.88
2023-10-06T01:24:50.975Z,77.40
2023-10-06T01:27:17.848Z,77.13
2023-10-06T01:29:46.352Z,76.70
2023-10-06T01:32:16.855Z,76.69
2023-10-06T01:34:45.599Z,77.09
2023-10-06T01:37:12.393Z,76.55
2023-10-06T01:39:40.942Z,76.98
2023-10-06T01:42:12.507Z,76.65
2023-10-06T01:44:39.133Z,76.99
2023-10-06T01:47:06.102Z,76.39
2023-10-06T01:49:37.386Z,76.18
2023-10-06T01:52:10.346Z,76.30
2023-10-06T01:54:37.857Z,76.27
2023-10-06T01:57:05.543Z,76.16
2023-10-06T01:59:32.314Z,76.22
2023-10-06T02:02:02.660Z,76.93
2023-10-06T02:04:50.888Z,76.82
2023-10-06T02:07:20.782Z,76.39
2023-10-06T02:09:47.524Z,76.18
2023-10-06T02:12:14.364Z,75.61
2023-10-06T02:14:41.227Z,76.00
2023-10-06T02:17:10.270Z,76.09
2023-10-06T02:19:38.621Z,75.72
2023-10-06T02:22:07.533Z,76.02
2023-10-06T02:24:34.720Z,76.02
2023-10-06T02:27:02.690Z,76.24
2023-10-06T02:29:31.056Z,76.75
2023-10-06T02:32:08.337Z,76.44
2023-10-06T02:34:37.187Z,76.93
2023-10-06T02:37:10.097Z,77.41
2023-10-06T02:39:39.813Z,77.61
2023-10-06T02:42:09.943Z,77.97
2023-10-06T02:44:40.225Z,77.94
2023-10-06T02:47:11.052Z,77.86
2023-10-06T02:49:41.994Z,77.65
2023-10-06T02:52:22.718Z,77.39
2023-10-06T02:55:04.947Z,77.20
2023-10-06T02:57:40.138Z,78.57
2023-10-06T03:00:26.130Z,78.08
2023-10-06T03:02:58.795Z,78.35
2023-10-06T03:05:39.682Z,78.13
2023-10-06T03:08:11.080Z,79.68
2023-10-06T03:10:46.746Z,81.45
2023-10-06T03:13:17.588Z,81.20
2023-10-06T03:15:47.902Z,81.42
2023-10-06T03:18:17.878Z,80.15
2023-10-06T03:20:48.790Z,78.85
2023-10-06T03:23:32.520Z,78.05
2023-10-06T03:25:59.283Z,78.26
2023-10-06T03:28:34.234Z,78.49
2023-10-06T03:31:26.744Z,78.18
2023-10-06T03:33:55.882Z,78.17
2023-10-06T03:36:38.948Z,77.38
2023-10-06T03:39:11.772Z,77.58
2023-10-06T03:41:42.375Z,77.79
2023-10-06T03:44:12.596Z,77.68
2023-10-06T03:46:40.072Z,77.55
2023-10-06T03:49:09.481Z,77.48
2023-10-06T03:51:40.342Z,77.86
2023-10-06T03:54:07.432Z,78.14
2023-10-06T03:56:34.126Z,77.66
2023-10-06T03:59:01.545Z,77.58
2023-10-06T04:01:32.775Z,77.32
2023-10-06T04:03:59.935Z,77.41
2023-10-06T04:06:36.346Z,77.73
2023-10-06T04:09:03.974Z,77.21
2023-10-06T04:11:35.369Z,77.92
2023-10-06T04:14:02.449Z,77.66
2023-10-06T04:16:29.435Z,77.59
2023-10-06T04:18:56.147Z,77.29
2023-10-06T04:21:25.431Z,76.95
2023-10-06T04:23:52.264Z,77.07
2023-10-06T04:26:19.452Z,77.22
2023-10-06T04:28:48.144Z,76.87
2023-10-06T04:31:16.860Z,76.92
2023-10-06T04:33:44.990Z,77.35
2023-10-06T04:36:21.819Z,77.09
2023-10-06T04:38:49.008Z,77.67
2023-10-06T04:41:16.085Z,77.43
2023-10-06T04:43:46.475Z,77.37
2023-10-06T04:46:14.782Z,77.14
2023-10-06T04:48:41.797Z,77.08
2023-10-06T04:51:13.417Z,77.01
2023-10-06T04:53:40.607Z,76.70
2023-10-06T04:56:09.681Z,76.93
2023-10-06T04:58:43.705Z,76.95
2023-10-06T05:01:12.781Z,76.59
2023-10-06T05:03:45.040Z,76.81
2023-10-06T05:06:21.885Z,77.35
2023-10-06T05:08:50.056Z,78.86
2023-10-06T05:11:18.821Z,78.98
2023-10-06T05:13:49.323Z,79.68
2023-10-06T05:16:16.610Z,80.84
2023-10-06T05:18:46.149Z,81.36
2023-10-06T05:21:13.159Z,80.98
2023-10-06T05:23:40.047Z,80.16
2023-10-06T05:26:11.799Z,80.28
2023-10-06T05:28:38.823Z,79.97
2023-10-06T05:31:08.986Z,80.41
2023-10-06T05:33:35.863Z,80.98
2023-10-06T05:36:13.265Z,81.71
2023-10-06T05:38:40.465Z,81.58
2023-10-06T05:41:12.667Z,81.86
2023-10-06T05:43:40.380Z,82.96
2023-10-06T05:46:07.262Z,81.15
2023-10-06T05:48:35.548Z,81.16
2023-10-06T05:51:11.709Z,81.96
2023-10-06T05:53:44.400Z,81.71
2023-10-06T05:56:11.681Z,82.02
2023-10-06T05:58:39.222Z,81.92
2023-10-06T06:01:12.696Z,82.12
2023-10-06T06:03:46.105Z,82.33
2023-10-06T06:06:17.113Z,82.16
2023-10-06T06:08:49.448Z,81.68
2023-10-06T06:11:17.203Z,81.71
2023-10-06T06:13:44.369Z,80.49
2023-10-06T06:16:11.434Z,80.67
2023-10-06T06:18:43.707Z,80.13
2023-10-06T06:21:10.636Z,80.62
2023-10-06T06:23:37.345Z,80.55
2023-10-06T06:26:04.155Z,80.04
2023-10-06T06:28:30.832Z,79.88
2023-10-06T06:30:57.620Z,79.74
2023-10-06T06:33:24.281Z,79.59
2023-10-06T06:35:51.409Z,79.02
2023-10-06T06:38:20.182Z,79.04
2023-10-06T06:40:47.431Z,78.77
2023-10-06T06:43:14.217Z,78.25
2023-10-06T06:45:44.353Z,77.93
2023-10-06T06:48:14.938Z,78.22
2023-10-06T06:50:45.905Z,77.74
2023-10-06T06:53:13.358Z,77.44
2023-10-06T06:55:43.051Z,77.16
2023-10-06T06:58:12.637Z,77.11
2023-10-06T07:00:43.181Z,77.06
2023-10-06T07:03:12.448Z,76.82
2023-10-06T07:05:40.717Z,76.82
2023-10-06T07:08:08.452Z,76.66
2023-10-06T07:10:40.212Z,76.45
2023-10-06T07:13:07.183Z,76.38
2023-10-06T07:15:35.065Z,76.16
2023-10-06T07:18:03.217Z,75.73
2023-10-06T07:20:31.313Z,74.51
2023-10-06T07:23:01.886Z,74.96
2023-10-06T07:25:29.524Z,74.46
2023-10-06T07:27:58.528Z,74.95
2023-10-06T07:30:29.800Z,74.83
2023-10-06T07:32:57.068Z,74.11
2023-10-06T07:35:32.243Z,74.51
2023-10-06T07:37:59.787Z,73.09
2023-10-06T07:40:28.870Z,73.56
2023-10-06T07:42:56.510Z,73.25
2023-10-06T07:45:25.170Z,73.12
2023-10-06T07:47:55.424Z,72.40
2023-10-06T07:50:22.260Z,71.91
2023-10-06T07:52:49.428Z,70.84
2023-10-06T07:55:17.976Z,70.80
2023-10-06T07:57:49.203Z,71.32
2023-10-06T08:00:40.145Z,71.40
2023-10-06T08:03:06.986Z,71.99
2023-10-06T08:05:34.646Z,70.93
2023-10-06T08:08:02.411Z,70.40
2023-10-06T08:10:33.333Z,70.91
2023-10-06T08:13:04.551Z,71.27
2023-10-06T08:15:34.377Z,69.82
2023-10-06T08:18:02.286Z,69.44
2023-10-06T08:20:31.962Z,70.01
2023-10-06T08:23:00.248Z,68.97
2023-10-06T08:25:27.963Z,69.72
2023-10-06T08:27:56.639Z,69.79
2023-10-06T08:30:24.456Z,70.43
2023-10-06T08:32:56.103Z,69.10
2023-10-06T08:35:24.174Z,69.33
2023-10-06T08:37:57.724Z,69.13
2023-10-06T08:40:26.365Z,67.81
2023-10-06T08:42:58.596Z,67.49
2023-10-06T08:45:28.452Z,66.98
2023-10-06T08:48:04.296Z,64.38
2023-10-06T08:50:34.570Z,62.12
2023-10-06T08:53:08.202Z,62.47
2023-10-06T08:55:39.410Z,64.39
2023-10-06T08:58:09.509Z,63.43
2023-10-06T09:00:38.461Z,64.41
2023-10-06T09:03:10.673Z,63.37
2023-10-06T09:05:43.617Z,62.08
2023-10-06T09:08:16.882Z,61.56
2023-10-06T09:10:50.276Z,60.86
2023-10-06T09:13:19.468Z,60.30
2023-10-06T09:16:09.478Z,59.01
2023-10-06T09:18:40.169Z,58.11
2023-10-06T09:21:13.657Z,58.46
2023-10-06T09:23:43.729Z,56.41
2023-10-06T09:26:15.345Z,54.38
2023-10-06T09:28:52.022Z,51.37
2023-10-06T09:31:35.045Z,48.69
2023-10-06T09:34:01.901Z,45.55
2023-10-06T09:36:43.629Z,43.94
2023-10-06T09:39:17.268Z,43.07
2023-10-06T09:41:46.090Z,42.51
2023-10-06T09:44:14.387Z,41.62
2023-10-06T09:46:45.198Z,41.85
2023-10-06T09:49:19.624Z,36.55
2023-10-06T09:51:48.127Z,35.85
2023-10-06T09:54:15.986Z,34.25
2023-10-06T09:56:43.395Z,35.61
2023-10-06T09:59:14.766Z,36.24
2023-10-06T10:01:47.086Z,36.31
2023-10-06T10:04:15.606Z,37.64
2023-10-06T10:06:44.991Z,36.74
2023-10-06T10:09:17.337Z,37.29
2023-10-06T10:12:18.096Z,35.16
2023-10-06T10:15:22.817Z,33.71
2023-10-06T10:17:55.111Z,32.11
2023-10-06T10:20:26.827Z,32.06
2023-10-06T10:22:57.832Z,31.43
2023-10-06T10:25:26.048Z,29.25
2023-10-06T10:28:14.946Z,29.00
2023-10-06T10:31:02.508Z,28.57
2023-10-06T10:33:34.880Z,29.36
2023-10-06T10:36:13.950Z,29.80
2023-10-06T10:38:43.060Z,29.02
2023-10-06T10:41:13.706Z,29.35
2023-10-06T10:43:46.592Z,29.21
2023-10-06T10:46:14.088Z,30.43
2023-10-06T10:48:48.911Z,30.52
2023-10-06T10:51:16.320Z,30.07
2023-10-06T10:53:46.717Z,29.51
2023-10-06T10:56:27.406Z,29.68
2023-10-06T10:58:55.483Z,29.77
2023-10-06T11:01:45.404Z,30.84
2023-10-06T11:04:30.330Z,30.59
2023-10-06T11:06:59.370Z,32.37
2023-10-06T11:09:27.904Z,33.92
2023-10-06T11:12:20.184Z,34.22
2023-10-06T11:14:53.251Z,35.90
2023-10-06T11:17:24.856Z,35.24
2023-10-06T11:20:16.956Z,35.99
2023-10-06T11:22:55.377Z,37.72
2023-10-06T11:25:29.706Z,37.47
2023-10-06T11:28:10.471Z,36.91
2023-10-06T11:30:39.930Z,37.69
2023-10-06T11:33:09.902Z,36.90
2023-10-06T11:35:38.259Z,37.48
2023-10-06T11:38:16.859Z,38.28
2023-10-06T11:40:43.734Z,38.27
2023-10-06T11:43:18.921Z,36.82
2023-10-06T11:45:45.970Z,38.08
2023-10-06T11:48:36.126Z,38.97
2023-10-06T11:51:08.130Z,39.42
2023-10-06T11:53:40.297Z,39.99
2023-10-06T11:56:16.567Z,39.40
2023-10-06T11:58:45.382Z,38.94
2023-10-06T12:01:35.241Z,39.40
2023-10-06T12:04:02.889Z,39.41
2023-10-06T12:06:43.749Z,39.77
2023-10-06T12:09:16.501Z,40.82
2023-10-06T12:11:43.343Z,39.99
2023-10-06T12:14:11.853Z,40.83
2023-10-06T12:16:38.968Z,40.32
2023-10-06T12:19:07.031Z,40.40
2023-10-06T12:21:34.183Z,40.49
2023-10-06T12:24:00.895Z,40.74
2023-10-06T12:26:27.596Z,41.61
2023-10-06T12:28:55.990Z,40.60
2023-10-06T12:31:23.636Z,40.61
2023-10-06T12:33:56.683Z,40.87
2023-10-06T12:36:24.462Z,41.20
2023-10-06T12:38:51.171Z,40.58
2023-10-06T12:41:19.091Z,41.63
2023-10-06T12:43:48.753Z,40.89
2023-10-06T12:46:15.896Z,39.68
2023-10-06T12:48:42.561Z,40.00
2023-10-06T12:51:12.968Z,40.54
2023-10-06T12:53:40.910Z,40.34
2023-10-06T12:56:08.417Z,40.29
2023-10-06T12:58:35.463Z,39.31
2023-10-06T13:01:02.274Z,38.17
2023-10-06T13:03:30.673Z,37.53
2023-10-06T13:05:57.598Z,39.49
2023-10-06T13:08:26.135Z,38.90
2023-10-06T13:10:55.233Z,38.95
2023-10-06T13:13:21.961Z,39.15
2023-10-06T13:15:48.810Z,38.95
2023-10-06T13:18:18.663Z,40.16
2023-10-06T13:20:46.174Z,40.74
2023-10-06T13:23:12.883Z,40.13
2023-10-06T13:25:40.863Z,40.88
2023-10-06T13:28:16.424Z,40.91
2023-10-06T13:30:44.640Z,39.44
2023-10-06T13:33:11.703Z,39.71
2023-10-06T13:35:38.861Z,40.57
2023-10-06T13:38:06.247Z,41.68
2023-10-06T13:40:35.523Z,41.77
2023-10-06T13:43:02.403Z,43.84
2023-10-06T13:45:31.268Z,44.08
2023-10-06T13:48:01.905Z,44.06
2023-10-06T13:50:32.317Z,44.69
2023-10-06T13:52:59.144Z,44.57
2023-10-06T13:55:26.053Z,45.59
2023-10-06T13:57:54.167Z,46.07
2023-10-06T14:00:38.368Z,46.69
2023-10-06T14:03:15.455Z,45.77
2023-10-06T14:05:44.396Z,46.29
2023-10-06T14:08:14.949Z,46.34
2023-10-06T14:10:42.691Z,47.01
2023-10-06T14:13:12.524Z,46.85
2023-10-06T14:16:10.289Z,47.31
2023-10-06T14:18:40.088Z,47.54
2023-10-06T14:21:07.739Z,48.43
2023-10-06T14:23:37.303Z,47.92
2023-10-06T14:26:11.293Z,48.14
2023-10-06T14:28:38.283Z,48.16
2023-10-06T14:31:17.874Z,48.97
2023-10-06T14:33:58.934Z,48.66
2023-10-06T14:36:27.624Z,48.89
2023-10-06T14:39:12.779Z,49.74
2023-10-06T14:41:57.505Z,49.96
2023-10-06T14:44:42.911Z,49.82
2023-10-06T14:47:11.214Z,50.04
2023-10-06T14:49:45.440Z,50.96
2023-10-06T14:52:12.450Z,51.20
2023-10-06T14:54:39.866Z,50.69
2023-10-06T14:57:06.739Z,50.61
2023-10-06T14:59:33.589Z,50.51
2023-10-06T15:02:13.212Z,51.17
2023-10-06T15:04:40.660Z,51.25
2023-10-06T15:07:10.129Z,51.28
2023-10-06T15:09:39.903Z,50.99
2023-10-06T15:12:07.355Z,51.57
2023-10-06T15:14:37.498Z,51.18
2023-10-06T15:17:05.679Z,49.97
2023-10-06T15:19:36.594Z,48.43
2023-10-06T15:22:03.700Z,47.67
2023-10-06T15:24:30.814Z,47.62
2023-10-06T15:26:58.207Z,47.73
2023-10-06T15:29:27.328Z,47.57
2023-10-06T15:31:54.158Z,47.28
2023-10-06T15:34:20.916Z,47.75
2023-10-06T15:36:48.087Z,49.13
2023-10-06T15:39:18.423Z,49.81
2023-10-06T15:41:50.127Z,49.90
2023-10-06T15:44:18.168Z,49.96
2023-10-06T15:46:46.288Z,51.04
2023-10-06T15:49:15.998Z,51.05
2023-10-06T15:51:46.633Z,51.30
2023-10-06T15:54:13.386Z,52.62
2023-10-06T15:56:40.701Z,52.55
2023-10-06T15:59:16.220Z,53.24
2023-10-06T16:01:44.653Z,54.18
2023-10-06T16:04:15.631Z,54.23
2023-10-06T16:06:44.608Z,54.58
2023-10-06T16:09:17.098Z,53.19
2023-10-06T16:11:44.744Z,54.39
2023-10-06T16:14:13.462Z,54.95
2023-10-06T16:16:41.450Z,54.88
2023-10-06T16:19:10.202Z,55.20
2023-10-06T16:21:37.382Z,55.44
2023-10-06T16:24:06.995Z,55.38
2023-10-06T16:26:35.214Z,55.32
2023-10-06T16:29:05.486Z,55.32
2023-10-06T16:31:35.513Z,56.02
2023-10-06T16:34:03.313Z,56.08
2023-10-06T16:36:32.605Z,57.14
2023-10-06T16:39:00.993Z,56.71
2023-10-06T16:41:28.581Z,56.47
2023-10-06T16:43:57.536Z,56.80
2023-10-06T16:46:28.197Z,57.18
2023-10-06T16:48:55.815Z,57.05
2023-10-06T16:51:24.744Z,57.91
2023-10-06T16:53:53.195Z,57.36
2023-10-06T16:56:24.785Z,58.48
2023-10-06T16:58:53.469Z,57.86
2023-10-06T17:01:20.866Z,57.83
2023-10-06T17:03:49.905Z,58.19
2023-10-06T17:06:19.904Z,57.66
2023-10-06T17:08:49.295Z,57.83
2023-10-06T17:11:20.142Z,57.94
2023-10-06T17:13:48.867Z,57.73
2023-10-06T17:16:16.911Z,58.09
2023-10-06T17:18:46.635Z,57.94
2023-10-06T17:21:15.929Z,57.53
2023-10-06T17:23:46.849Z,57.26
2023-10-06T17:26:17.958Z,57.29
2023-10-06T17:28:47.533Z,56.83
2023-10-06T17:31:18.395Z,56.77
2023-10-06T17:33:46.690Z,56.52
2023-10-06T17:36:15.106Z,56.46
2023-10-06T17:38:42.713Z,56.65
2023-10-06T17:41:14.996Z,57.48
2023-10-06T17:43:42.327Z,57.16
2023-10-06T17:46:16.844Z,57.64
2023-10-06T17:48:48.237Z,58.36
2023-10-06T17:51:16.318Z,57.83
2023-10-06T17:53:44.018Z,58.04
2023-10-06T17:56:12.217Z,58.13
2023-10-06T17:58:39.629Z,58.40
2023-10-06T18:01:08.410Z,59.25
2023-10-06T18:03:35.401Z,58.65
2023-10-06T18:06:02.723Z,58.92
2023-10-06T18:08:30.512Z,59.15
2023-10-06T18:10:57.505Z,59.14
2023-10-06T18:13:25.248Z,59.34
2023-10-06T18:15:55.153Z,59.90
2023-10-06T18:18:22.857Z,59.74
2023-10-06T18:20:49.882Z,59.26
2023-10-06T18:23:16.629Z,59.55
2023-10-06T18:25:43.619Z,59.76
2023-10-06T18:28:10.457Z,59.84
2023-10-06T18:30:37.203Z,59.98
2023-10-06T18:33:05.244Z,59.80
2023-10-06T18:35:35.473Z,59.80
2023-10-06T18:38:02.527Z,59.71
2023-10-06T18:40:29.217Z,59.68
2023-10-06T18:42:58.096Z,59.88
2023-10-06T18:45:24.715Z,60.44
2023-10-06T18:47:53.301Z,60.26
2023-10-06T18:50:20.339Z,60.13
2023-10-06T18:52:52.004Z,59.93
2023-10-06T18:55:24.063Z,60.22
2023-10-06T18:57:52.101Z,59.66
2023-10-06T19:00:24.843Z,59.72
2023-10-06T19:02:52.282Z,59.71
2023-10-06T19:05:21.706Z,60.07
2023-10-06T19:07:48.564Z,59.56
2023-10-06T19:10:16.031Z,59.30
2023-10-06T19:12:46.493Z,59.63
2023-10-06T19:15:13.386Z,59.51
2023-10-06T19:17:40.171Z,59.71
2023-10-06T19:20:10.272Z,59.40
2023-10-06T19:22:40.642Z,59.50
2023-10-06T19:25:11.316Z,58.91
2023-10-06T19:27:39.811Z,58.92
2023-10-06T19:30:13.757Z,59.33
2023-10-06T19:32:41.353Z,59.18
2023-10-06T19:35:09.965Z,59.01
2023-10-06T19:37:41.105Z,58.87
2023-10-06T19:40:09.756Z,58.50
2023-10-06T19:42:37.524Z,58.79
2023-10-06T19:45:08.040Z,59.13
2023-10-06T19:47:34.911Z,58.69
2023-10-06T19:50:04.043Z,58.51
2023-10-06T19:52:31.582Z,58.50
2023-10-06T19:54:59.268Z,58.52
2023-10-06T19:57:27.513Z,58.12
2023-10-06T19:59:55.385Z,58.15
2023-10-06T20:02:23.276Z,58.06
2023-10-06T20:04:51.221Z,58.44
2023-10-06T20:07:18.373Z,58.23
2023-10-06T20:09:45.190Z,58.47
2023-10-06T20:12:12.127Z,58.25
2023-10-06T20:14:38.844Z,58.42
2023-10-06T20:17:05.682Z,58.08
2023-10-06T20:19:34.175Z,58.05
2023-10-06T20:22:00.921Z,58.28
2023-10-06T20:24:27.584Z,58.12
2023-10-06T20:26:54.242Z,58.38
2023-10-06T20:29:20.914Z,58.29
2023-10-06T20:31:47.679Z,58.09
2023-10-06T20:34:14.492Z,58.24
2023-10-06T20:36:41.248Z,57.98
2023-10-06T20:39:11.098Z,58.10
2023-10-06T20:41:38.972Z,58.20
2023-10-06T20:44:11.666Z,57.92
2023-10-06T20:46:44.620Z,58.28
2023-10-06T20:49:14.993Z,57.98
2023-10-06T20:51:42.455Z,58.04
2023-10-06T20:54:09.553Z,58.96
2023-10-06T20:56:36.585Z,57.86
2023-10-06T20:59:03.321Z,58.08
2023-10-06T21:01:33.226Z,58.26
2023-10-06T21:04:05.579Z,58.09
2023-10-06T21:06:36.158Z,57.99
2023-10-06T21:09:05.734Z,58.25
2023-10-06T21:11:38.123Z,57.90
2023-10-06T21:14:12.985Z,58.00
2023-10-06T21:16:39.959Z,58.70
2023-10-06T21:19:06.941Z,58.28
2023-10-06T21:21:33.613Z,58.28
2023-10-06T21:24:01.282Z,57.76
2023-10-06T21:26:27.993Z,58.20
2023-10-06T21:28:56.861Z,58.44
2023-10-06T21:31:24.292Z,58.68
2023-10-06T21:33:51.233Z,58.53
2023-10-06T21:36:20.143Z,58.77
2023-10-06T21:38:47.681Z,58.66
2023-10-06T21:41:18.062Z,58.86
2023-10-06T21:43:44.746Z,58.80
2023-10-06T21:46:14.618Z,58.78
2023-10-06T21:48:41.449Z,58.53
2023-10-06T21:51:08.160Z,58.65
2023-10-06T21:53:37.818Z,58.52
2023-10-06T21:56:12.998Z,58.76
2023-10-06T21:58:41.010Z,58.54
2023-10-06T22:01:16.555Z,58.46
2023-10-06T22:03:43.385Z,58.61
2023-10-06T22:06:11.191Z,58.57
2023-10-06T22:08:37.931Z,58.21
2023-10-06T22:11:07.315Z,58.37
2023-10-06T22:13:34.822Z,58.76
2023-10-06T22:16:01.700Z,58.62
2023-10-06T22:18:28.489Z,58.51
2023-10-06T22:20:55.530Z,58.59
2023-10-06T22:23:24.900Z,58.37
2023-10-06T22:25:52.701Z,58.58
2023-10-06T22:28:21.334Z,58.45
2023-10-06T22:30:48.327Z,58.46
2023-10-06T22:33:15.025Z,59.23
2023-10-06T22:35:41.792Z,58.87
2023-10-06T22:38:11.730Z,58.68
2023-10-06T22:40:38.947Z,58.39
2023-10-06T22:43:06.053Z,58.50
2023-10-06T22:45:32.725Z,58.34
2023-10-06T22:48:01.713Z,58.25
2023-10-06T22:50:28.544Z,58.66
2023-10-06T22:52:55.465Z,58.22
2023-10-06T22:55:22.321Z,58.34
2023-10-06T22:57:49.098Z,58.43
2023-10-06T23:00:18.841Z,58.19
2023-10-06T23:02:48.263Z,58.13
2023-10-06T23:05:16.107Z,58.36
2023-10-06T23:07:43.633Z,59.17
2023-10-06T23:10:13.752Z,59.01
2023-10-06T23:12:44.799Z,58.84
2023-10-06T23:15:13.190Z,58.94
2023-10-06T23:17:42.134Z,58.42
2023-10-06T23:20:15.389Z,58.51
2023-10-06T23:22:45.041Z,58.97
2023-10-06T23:25:13.584Z,59.34
2023-10-06T23:27:40.819Z,58.97
2023-10-06T23:30:10.908Z,58.98
2023-10-06T23:32:39.527Z,59.18
2023-10-06T23:35:08.381Z,59.69
2023-10-06T23:37:35.291Z,59.63
2023-10-06T23:40:01.928Z,59.43
2023-10-06T23:42:28.714Z,59.82
2023-10-06T23:44:55.420Z,59.59
2023-10-06T23:47:24.671Z,59.88
2023-10-06T23:49:56.622Z,59.57
2023-10-06T23:52:23.513Z,59.92
2023-10-06T23:54:50.263Z,60.46
2023-10-06T23:57:17.032Z,60.17
2023-10-06T23:59:55.825Z,60.29
